Gulkana Airport Gulkana US
ICAO: PAGK
IATA:
Category: Medium
Scheduled Services:

Elevation: 1586 ft
TransAlt. 18000 ft.

Airport Communications:
ASOS:134.85
ANCHORAGE CNTR:119.5
CTAF:122.9
KENAI RDO:122.2
TWEB:115.6

PAGK Zoom In..

Runways:

(A) RW 15 length 5001 ft width 100 ft
---- / hdg 148

(B) RW 33 length 5001 ft width 100 ft
---- / hdg 328

Location; PAGK
Day. 15 / Time. 21.53 Zulu
* Altimeter: 29.83
* Temperature: 12° c. 53.6°f.
* Wind from: 160° Speed 08 kn.
Dewpoint: 08° c.
Visibility: 10 Statute Miles.
Clouds: Few 3300 ft.
Clouds: Overcast 7000 ft.

PAGK 152153Z AUTO 16008KT 10SM FEW033 OVC070 12/08 A2983 RMK RAE37 SLP107 P0001 T01170083 TSNO VIA AUTODIAL


Wind From 160°
Speed 08 kn.

 
 
jpsmedia.com for Web Design worldairports.se 2018   terms of use